Time;durP1;ratioP1;P1;durP2;ratioP2;P2;SDS_P1;SDS_P2;PMS_P1;PMS_P2;Temp;Humidity;BMP_temperature;BMP_pressure;BME280_temperature;BME280_humidity;BME280_pressure;Samples;Min_cycle;Max_cycle;Signal;HPM_P1;HPM_P2
2022/02/12 00:02:10;;;;;;;38.58;21.10;;;;;;;4.41;71.01;100358.50;5069150;28;20020;-48
2022/02/12 00:04:35;;;;;;;38.92;22.15;;;;;;;4.28;71.37;100356.22;5072789;28;20032;-48
2022/02/12 00:07:00;;;;;;;37.58;20.50;;;;;;;4.21;71.82;100351.69;5072658;28;20028;-49
2022/02/12 00:09:26;;;;;;;44.83;22.55;;;;;;;4.21;71.67;100359.59;5072861;28;20024;-49
2022/02/12 00:11:52;;;;;;;42.58;22.83;;;;;;;4.29;71.19;100360.50;5072653;28;20476;-51
2022/02/12 00:14:18;;;;;;;46.17;22.63;;;;;;;4.15;71.21;100360.16;5071269;28;20434;-48
2022/02/12 00:16:43;;;;;;;47.03;23.38;;;;;;;4.06;71.30;100364.53;5072327;28;20016;-51
2022/02/12 00:19:08;;;;;;;47.05;24.45;;;;;;;3.67;73.24;100369.94;5072300;28;20027;-49
2022/02/12 00:21:34;;;;;;;48.45;23.95;;;;;;;3.58;73.50;100366.38;5072737;28;20054;-48
2022/02/12 00:24:00;;;;;;;43.35;23.23;;;;;;;3.82;72.49;100365.03;5073190;28;20032;-49
2022/02/12 00:26:25;;;;;;;47.50;23.98;;;;;;;3.80;72.49;100370.44;5073165;28;20384;-49
2022/02/12 00:28:51;;;;;;;48.60;23.80;;;;;;;3.92;72.61;100366.66;5072722;28;20066;-52
2022/02/12 00:31:16;;;;;;;42.47;22.40;;;;;;;3.78;72.25;100369.75;5072673;28;20020;-48
2022/02/12 00:33:42;;;;;;;46.00;22.92;;;;;;;3.58;73.12;100376.03;5072725;28;20142;-48
2022/02/12 00:36:08;;;;;;;48.28;23.90;;;;;;;3.58;73.43;100376.03;5072799;28;20090;-51
2022/02/12 00:38:33;;;;;;;41.63;23.00;;;;;;;3.59;73.25;100377.72;5072460;28;20095;-48
2022/02/12 00:40:59;;;;;;;44.42;23.15;;;;;;;3.55;73.35;100376.34;5071454;28;20028;-50
2022/02/12 00:43:24;;;;;;;54.60;24.60;;;;;;;3.80;72.71;100375.69;5072361;28;20459;-47
2022/02/12 00:45:50;;;;;;;49.35;24.88;;;;;;;3.33;74.33;100379.16;5072545;28;20021;-52
2022/02/12 00:48:15;;;;;;;46.25;24.15;;;;;;;3.47;73.96;100380.50;5072301;28;20037;-51
2022/02/12 00:50:41;;;;;;;47.10;24.08;;;;;;;3.70;73.28;100374.91;5072475;28;20036;-50
2022/02/12 00:53:06;;;;;;;48.47;24.75;;;;;;;3.53;73.49;100384.38;5072410;28;20029;-51
2022/02/12 00:55:32;;;;;;;44.65;23.27;;;;;;;3.45;73.92;100379.81;5072202;28;20017;-51
2022/02/12 00:57:58;;;;;;;42.13;23.05;;;;;;;3.43;74.39;100379.13;5072223;28;20025;-49
2022/02/12 01:00:24;;;;;;;48.38;23.65;;;;;;;3.64;73.79;100386.03;5072137;28;20016;-50
2022/02/12 01:02:49;;;;;;;46.17;23.80;;;;;;;3.38;74.29;100377.91;5072411;28;20025;-51
2022/02/12 01:05:15;;;;;;;47.42;24.17;;;;;;;3.48;73.34;100387.44;5071910;28;20102;-49
2022/02/12 01:07:40;;;;;;;46.60;23.88;;;;;;;3.20;74.06;100386.50;5072277;28;20029;-48
2022/02/12 01:10:07;;;;;;;44.58;22.75;;;;;;;3.03;74.92;100382.78;5072006;28;20436;-48
2022/02/12 01:12:32;;;;;;;45.33;23.67;;;;;;;3.20;74.61;100377.78;5071855;28;20038;-51
2022/02/12 01:14:58;;;;;;;49.97;24.33;;;;;;;3.12;75.01;100383.72;5071829;28;20025;-50
2022/02/12 01:17:25;;;;;;;45.10;23.85;;;;;;;3.15;74.31;100385.28;5071980;28;20059;-53
2022/02/12 01:19:52;;;;;;;52.22;23.25;;;;;;;3.04;74.63;100388.88;5071772;28;20036;-50
2022/02/12 01:22:17;;;;;;;47.33;24.25;;;;;;;3.07;75.05;100383.34;5072081;28;20487;-48
2022/02/12 01:24:43;;;;;;;51.33;23.05;;;;;;;3.24;74.21;100392.31;5071830;28;20097;-51
2022/02/12 01:27:08;;;;;;;44.65;23.40;;;;;;;3.24;74.29;100393.16;5072804;28;20024;-48
2022/02/12 01:29:34;;;;;;;49.20;24.33;;;;;;;3.04;74.21;100394.13;5072604;28;20016;-48
2022/02/12 01:32:04;;;;;;;49.50;24.10;;;;;;;2.89;74.89;100391.94;5072269;28;20020;-51
2022/02/12 01:34:32;;;;;;;;;;;;;;;3.03;74.38;100390.66;5072629;28;20455;-49
2022/02/12 01:36:57;;;;;;;49.92;22.40;;;;;;;2.84;75.28;100390.69;5072368;28;19916;-50
2022/02/12 01:39:23;;;;;;;44.33;23.35;;;;;;;2.74;75.75;100388.88;5072436;28;20058;-49
2022/02/12 01:41:48;;;;;;;48.00;22.95;;;;;;;2.65;76.37;100391.50;5072081;28;20020;-47
2022/02/12 01:44:14;;;;;;;45.67;23.77;;;;;;;2.74;75.57;100395.91;5072003;28;20028;-48
2022/02/12 01:46:39;;;;;;;49.00;24.67;;;;;;;2.85;76.46;100401.03;5071551;28;20025;-47
2022/02/12 01:49:05;;;;;;;50.15;23.73;;;;;;;3.21;75.17;100401.31;5071863;28;20564;-48
2022/02/12 01:51:31;;;;;;;44.92;24.05;;;;;;;3.26;75.52;100406.16;5071910;28;20021;-51
2022/02/12 01:53:57;;;;;;;43.67;22.73;;;;;;;3.17;75.33;100415.72;5070744;28;20032;-49
2022/02/12 01:56:22;;;;;;;45.80;23.40;;;;;;;3.19;75.48;100407.69;5071655;28;20021;-51
2022/02/12 01:58:48;;;;;;;46.10;22.48;;;;;;;3.20;74.91;100412.81;5071917;28;20542;-51
2022/02/12 02:01:13;;;;;;;40.80;22.52;;;;;;;3.22;74.98;100415.28;5071740;28;20016;-51
2022/02/12 02:03:39;;;;;;;43.00;21.75;;;;;;;3.27;74.77;100416.53;5071765;28;20020;-48
2022/02/12 02:06:05;;;;;;;43.08;20.63;;;;;;;3.33;75.12;100420.41;5071419;28;20175;-52
2022/02/12 02:08:31;;;;;;;42.03;22.05;;;;;;;3.41;74.05;100424.97;5070701;28;20020;-48
2022/02/12 02:10:56;;;;;;;37.20;20.45;;;;;;;3.39;74.63;100426.91;5071315;28;20080;-48
2022/02/12 02:13:23;;;;;;;38.60;19.40;;;;;;;3.30;74.86;100429.41;5071402;28;20032;-48
2022/02/12 02:15:48;;;;;;;35.88;19.00;;;;;;;3.35;74.14;100436.06;5070943;28;20340;-48
2022/02/12 02:18:14;;;;;;;37.35;19.80;;;;;;;3.57;73.65;100443.66;5071370;28;20093;-48
2022/02/12 02:20:40;;;;;;;38.20;18.98;;;;;;;3.47;73.94;100438.41;5071423;28;20020;-48
2022/02/12 02:23:05;;;;;;;33.15;18.20;;;;;;;3.27;74.58;100439.38;5071618;28;20021;-47
2022/02/12 02:25:31;;;;;;;34.45;18.85;;;;;;;3.25;74.69;100438.69;5071189;28;20021;-47
2022/02/12 02:27:56;;;;;;;39.20;19.80;;;;;;;3.25;74.23;100446.59;5071532;28;20404;-48
2022/02/12 02:30:22;;;;;;;32.85;18.20;;;;;;;3.39;74.15;100443.53;5071295;28;20396;-49
2022/02/12 02:32:47;;;;;;;34.33;18.50;;;;;;;3.39;73.71;100450.59;5071264;28;20024;-37
2022/02/12 02:35:15;;;;;;;33.53;18.02;;;;;;;3.26;74.11;100449.09;5071383;28;20020;-37
2022/02/12 02:37:42;;;;;;;34.08;17.75;;;;;;;3.30;74.02;100452.28;5071235;28;20062;-37
2022/02/12 02:40:15;;;;;;;32.42;16.52;;;;;;;3.16;74.23;100450.91;5071391;28;20107;-36
2022/02/12 02:42:42;;;;;;;29.60;16.90;;;;;;;3.06;74.82;100450.88;5071115;28;20571;-37
2022/02/12 02:45:09;;;;;;;35.25;17.70;;;;;;;3.13;74.40;100454.63;5071174;28;20459;-37
2022/02/12 02:47:40;;;;;;;34.55;18.05;;;;;;;3.10;74.64;100457.53;5071071;28;20112;-37
2022/02/12 02:55:59;;;;;;;29.23;15.68;;;;;;;3.18;73.62;100459.47;5071293;28;20020;-38
2022/02/12 02:58:20;;;;;;;28.73;15.82;;;;;;;3.26;73.85;100464.03;5070385;28;20031;-38
2022/02/12 03:00:46;;;;;;;28.00;15.93;;;;;;;3.27;73.17;100463.88;5071272;28;20024;-38
2022/02/12 03:03:11;;;;;;;31.90;16.67;;;;;;;3.32;72.78;100472.19;5071042;28;20029;-37
2022/02/12 03:05:37;;;;;;;29.02;15.48;;;;;;;3.16;73.71;100474.56;5070864;28;20102;-37
2022/02/12 03:08:02;;;;;;;28.42;16.00;;;;;;;3.00;74.34;100472.47;5070975;28;20035;-37
2022/02/12 03:10:28;;;;;;;33.22;17.00;;;;;;;3.03;74.65;100472.19;5070741;28;20388;-37
2022/02/12 03:12:53;;;;;;;32.47;16.45;;;;;;;3.12;73.75;100471.38;5070753;28;20078;-37
2022/02/12 03:15:19;;;;;;;36.22;17.02;;;;;;;3.05;73.43;100472.88;5070622;28;20012;-37
2022/02/12 03:17:44;;;;;;;34.55;16.80;;;;;;;3.33;72.98;100478.28;5070665;28;20028;-37
2022/02/12 03:20:10;;;;;;;29.60;16.02;;;;;;;3.25;73.02;100480.78;5070623;28;20036;-37
2022/02/12 03:22:35;;;;;;;34.90;16.65;;;;;;;3.41;72.57;100491.59;5070504;28;20019;-38
2022/02/12 03:25:01;;;;;;;27.27;15.45;;;;;;;3.42;72.69;100485.34;5070208;28;20017;-38
2022/02/12 03:27:26;;;;;;;26.83;14.15;;;;;;;3.52;72.86;100491.47;5070519;28;20024;-37
2022/02/12 03:29:52;;;;;;;26.15;13.90;;;;;;;3.38;72.78;100489.22;5069306;28;20032;-37
2022/02/12 03:32:17;;;;;;;30.27;15.13;;;;;;;3.26;72.58;100474.56;5070677;28;20041;-37
2022/02/12 03:34:43;;;;;;;30.42;15.27;;;;;;;3.26;72.50;100495.63;5070439;28;20032;-37
2022/02/12 03:37:09;;;;;;;24.88;14.30;;;;;;;3.32;72.78;100495.88;5070101;28;20074;-37
2022/02/12 03:39:34;;;;;;;25.02;12.55;;;;;;;3.29;72.73;100497.94;5074289;28;20522;-37
2022/02/12 03:41:59;;;;;;;24.92;13.10;;;;;;;3.41;71.43;100503.91;5074380;28;20024;-37
2022/02/12 03:44:25;;;;;;;25.33;13.38;;;;;;;3.37;71.77;100499.88;5074078;28;20028;-37
2022/02/12 03:46:50;;;;;;;23.95;13.73;;;;;;;3.02;71.60;100474.97;5074557;28;20024;-38
2022/02/12 03:49:16;;;;;;;23.05;13.18;;;;;;;3.28;71.21;100509.47;5073981;28;20145;-37
2022/02/12 03:51:41;;;;;;;25.45;14.20;;;;;;;3.18;70.86;100522.59;5074204;28;20392;-37
2022/02/12 03:54:07;;;;;;;21.45;12.68;;;;;;;3.27;70.11;100515.69;5074278;28;20031;-37
2022/02/12 03:56:32;;;;;;;22.15;12.20;;;;;;;3.39;69.38;100511.97;5073647;28;20070;-38
2022/02/12 03:58:58;;;;;;;22.92;12.65;;;;;;;3.35;69.97;100509.72;5073966;28;20029;-39
2022/02/12 04:01:23;;;;;;;19.98;11.65;;;;;;;3.58;68.22;100520.81;5074474;28;20535;-37
2022/02/12 04:03:49;;;;;;;21.90;11.68;;;;;;;3.43;67.97;100513.34;5074002;28;20541;-38
2022/02/12 04:06:15;;;;;;;22.05;12.13;;;;;;;3.71;67.34;100521.34;5073960;28;20076;-38
2022/02/12 04:08:40;;;;;;;19.30;11.50;;;;;;;3.70;67.52;100517.06;5074230;28;20082;-37
2022/02/12 04:11:06;;;;;;;21.80;11.75;;;;;;;3.63;67.72;100511.53;5073554;28;20043;-37
2022/02/12 04:13:34;;;;;;;21.60;12.30;;;;;;;3.49;68.72;100507.53;5073648;28;20023;-38
2022/02/12 04:15:59;;;;;;;20.73;11.88;;;;;;;3.42;68.12;100518.75;5073608;28;20078;-37
2022/02/12 04:18:24;;;;;;;26.27;12.70;;;;;;;3.38;68.54;100518.19;5071999;28;20032;-37
2022/02/12 04:20:50;;;;;;;22.15;12.27;;;;;;;3.37;68.87;100526.19;5072964;28;20031;-37
2022/02/12 04:23:15;;;;;;;20.92;11.63;;;;;;;3.45;68.36;100524.56;5073567;28;20056;-38
2022/02/12 04:25:41;;;;;;;20.95;11.82;;;;;;;3.36;68.71;100530.66;5073362;28;20043;-38
2022/02/12 04:28:07;;;;;;;22.25;11.90;;;;;;;3.17;69.24;100530.63;5073272;28;20028;-38
2022/02/12 04:30:35;;;;;;;23.40;12.70;;;;;;;3.38;68.72;100533.97;5073597;28;20024;-38
2022/02/12 04:33:01;;;;;;;22.90;12.13;;;;;;;3.19;69.26;100537.41;5073046;28;20024;-38
2022/02/12 04:35:26;;;;;;;23.65;12.30;;;;;;;3.47;68.50;100534.94;5073179;28;20028;-38
2022/02/12 04:37:52;;;;;;;24.83;13.80;;;;;;;3.30;69.04;100532.03;5073277;28;20028;-37
2022/02/12 04:40:17;;;;;;;27.90;13.70;;;;;;;3.54;68.31;100538.66;5073296;28;20031;-38
2022/02/12 04:42:43;;;;;;;26.42;14.98;;;;;;;3.40;69.37;100539.91;5072746;28;20024;-38
2022/02/12 04:45:09;;;;;;;26.52;14.82;;;;;;;3.34;68.96;100535.22;5072737;28;20054;-38
2022/02/12 04:47:36;;;;;;;26.23;14.35;;;;;;;3.50;68.54;100540.78;5072853;28;20086;-38
2022/02/12 04:50:03;;;;;;;26.38;14.98;;;;;;;3.52;68.49;100549.38;5072901;28;20021;-38
2022/02/12 04:52:29;;;;;;;25.90;15.48;;;;;;;3.39;68.37;100540.06;5072302;28;20615;-38
2022/02/12 04:54:54;;;;;;;25.58;14.75;;;;;;;3.25;69.40;100543.91;5072804;28;20024;-38
2022/02/12 04:57:19;;;;;;;27.83;15.05;;;;;;;2.98;69.42;100540.13;5072802;28;20097;-38
2022/02/12 04:59:45;;;;;;;26.98;14.52;;;;;;;2.74;70.92;100546.59;5072526;28;20032;-38
2022/02/12 05:02:10;;;;;;;26.83;14.88;;;;;;;2.62;71.80;100544.16;5072617;28;20027;-38
2022/02/12 05:04:36;;;;;;;28.95;15.15;;;;;;;2.63;72.06;100554.56;5072749;28;20029;-38
2022/02/12 05:07:02;;;;;;;31.30;15.25;;;;;;;2.70;71.65;100555.69;5072543;28;20090;-36
2022/02/12 05:09:27;;;;;;;29.42;15.68;;;;;;;2.45;72.51;100567.47;5072495;28;20090;-36
2022/02/12 05:11:54;;;;;;;33.38;16.55;;;;;;;2.58;72.58;100574.31;5072421;28;20025;-37
2022/02/12 05:14:19;;;;;;;31.92;16.70;;;;;;;2.39;71.95;100569.78;5071159;28;20024;-38
2022/02/12 05:16:45;;;;;;;28.45;15.35;;;;;;;3.93;72.97;100565.00;5072104;28;20025;-38
2022/02/12 05:19:11;;;;;;;28.67;16.02;;;;;;;3.38;70.09;100576.06;5071409;28;20036;-38
2022/02/12 05:21:36;;;;;;;32.45;16.20;;;;;;;3.30;70.03;100574.13;5073007;28;20108;-38
2022/02/12 05:24:02;;;;;;;32.63;16.25;;;;;;;3.05;70.49;100583.34;5072176;28;20027;-36
2022/02/12 05:26:27;;;;;;;30.77;16.88;;;;;;;2.86;70.95;100588.53;5071976;28;20376;-38
2022/02/12 05:28:53;;;;;;;30.15;16.25;;;;;;;2.67;71.51;100594.56;5072103;28;20027;-38
2022/02/12 05:31:19;;;;;;;98.35;42.97;;;;;;;2.65;71.18;100597.31;5071581;28;20070;-38
2022/02/12 05:33:44;;;;;;;92.43;41.58;;;;;;;2.62;71.78;100600.19;5071577;28;20025;-38
2022/02/12 05:36:11;;;;;;;141.25;58.58;;;;;;;2.64;71.08;100593.00;5071620;28;20028;-38
2022/02/12 05:38:39;;;;;;;50.92;25.33;;;;;;;2.47;71.98;100597.06;5072029;28;20033;-36
2022/02/12 05:41:05;;;;;;;31.73;16.92;;;;;;;2.46;71.54;100599.84;5071658;28;20077;-38
2022/02/12 05:43:33;;;;;;;35.47;17.27;;;;;;;2.14;72.71;100612.06;5071451;28;20024;-37
2022/02/12 05:45:59;;;;;;;37.28;18.23;;;;;;;2.33;71.86;100606.13;5071566;28;20024;-38
2022/02/12 05:48:25;;;;;;;35.10;17.48;;;;;;;2.27;71.98;100611.06;5071824;28;20471;-38
2022/02/12 05:50:51;;;;;;;34.95;17.75;;;;;;;2.32;71.41;100609.72;5071449;28;20027;-37
2022/02/12 05:53:17;;;;;;;32.28;16.88;;;;;;;2.17;72.56;100618.03;5071466;28;20254;-37
2022/02/12 05:55:42;;;;;;;34.13;18.50;;;;;;;2.28;72.20;100624.03;5071712;28;20079;-37
2022/02/12 05:58:07;;;;;;;38.85;20.00;;;;;;;2.25;72.63;100626.94;5071295;28;20029;-37
2022/02/12 06:00:33;;;;;;;38.28;20.52;;;;;;;2.37;72.14;100625.09;5070290;28;20020;-37
2022/02/12 06:02:59;;;;;;;58.67;32.42;;;;;;;2.57;71.04;100622.56;5071252;28;20025;-37
2022/02/12 06:05:24;;;;;;;58.47;27.90;;;;;;;2.10;72.29;100597.53;5070786;28;20120;-37
2022/02/12 06:07:50;;;;;;;38.35;19.13;;;;;;;2.41;71.89;100638.81;5066682;28;20024;-37
2022/02/12 06:10:15;;;;;;;38.13;18.42;;;;;;;2.84;70.41;100636.00;5070861;28;20020;-38
2022/02/12 06:12:41;;;;;;;39.40;18.27;;;;;;;2.82;70.87;100644.97;5070410;28;20081;-38
2022/02/12 06:15:07;;;;;;;39.55;19.13;;;;;;;2.90;70.71;100639.91;5070118;28;20082;-38
2022/02/12 06:17:32;;;;;;;39.47;19.25;;;;;;;3.29;68.88;100629.50;5070673;28;20096;-39
2022/02/12 06:19:58;;;;;;;42.10;20.33;;;;;;;2.91;68.19;100567.91;5069365;28;20020;-39
2022/02/12 06:22:28;;;;;;;40.22;18.77;;;;;;;3.56;67.58;100636.78;5069744;28;20016;-38
2022/02/12 06:24:54;;;;;;;49.75;24.75;;;;;;;3.49;67.99;100654.91;5070734;28;20059;-38
2022/02/12 06:27:20;;;;;;;42.45;22.17;;;;;;;3.67;67.71;100659.50;5070330;28;20494;-39
2022/02/12 06:29:45;;;;;;;35.75;19.63;;;;;;;4.07;65.86;100669.94;5070866;28;20024;-38
2022/02/12 06:32:11;;;;;;;38.90;18.92;;;;;;;3.90;66.48;100663.56;5070851;28;20024;-38
2022/02/12 06:34:37;;;;;;;36.42;18.65;;;;;;;3.96;66.79;100664.81;5070785;28;20434;-38
2022/02/12 06:37:03;;;;;;;50.45;23.27;;;;;;;4.14;66.31;100675.47;5071637;28;20059;-38
2022/02/12 06:39:28;;;;;;;98.35;48.28;;;;;;;4.35;66.31;100674.50;5071424;28;20078;-38
2022/02/12 06:41:53;;;;;;;39.60;19.10;;;;;;;4.64;65.00;100682.34;5071716;28;20020;-38
2022/02/12 06:44:19;;;;;;;38.33;18.55;;;;;;;5.06;64.15;100687.22;5070931;28;20021;-39
2022/02/12 06:46:44;;;;;;;38.83;18.88;;;;;;;5.16;63.25;100695.09;5071424;28;20036;-39
2022/02/12 06:49:10;;;;;;;39.72;18.48;;;;;;;5.34;62.37;100692.56;5071872;28;20031;-37
2022/02/12 06:51:36;;;;;;;35.00;18.27;;;;;;;5.49;61.87;100696.38;5071586;28;20029;-38
2022/02/12 06:54:03;;;;;;;43.63;18.98;;;;;;;5.95;61.25;100694.56;5071745;28;20464;-39
2022/02/12 06:56:28;;;;;;;36.38;19.27;;;;;;;6.05;60.77;100703.28;5071061;28;20017;-38
2022/02/12 06:58:54;;;;;;;43.58;20.55;;;;;;;6.71;59.70;100710.91;5071081;28;20463;-38
2022/02/12 07:01:20;;;;;;;40.03;20.00;;;;;;;7.76;56.47;100706.31;5071246;28;20397;-39
2022/02/12 07:03:45;;;;;;;38.75;19.75;;;;;;;7.82;55.85;100706.50;5071052;28;20107;-39
2022/02/12 07:06:11;;;;;;;35.53;18.65;;;;;;;7.89;55.71;100709.31;5070837;28;20123;-39
2022/02/12 07:08:36;;;;;;;40.88;17.95;;;;;;;8.12;55.94;100676.88;5070916;28;20116;-37
2022/02/12 07:11:02;;;;;;;33.78;15.60;;;;;;;8.67;54.39;100712.56;5070518;28;20021;-40
2022/02/12 07:13:27;;;;;;;25.45;11.95;;;;;;;9.29;52.10;100720.72;5074292;28;20028;-38
2022/02/12 07:15:54;;;;;;;20.35;8.98;;;;;;;9.72;50.76;100712.41;5075064;28;20027;-38
2022/02/12 07:18:21;;;;;;;11.27;6.55;;;;;;;9.80;49.70;100715.00;5074389;28;20091;-38
2022/02/12 07:20:46;;;;;;;10.70;5.85;;;;;;;10.16;48.55;100709.94;5075543;28;20107;-38
2022/02/12 07:23:12;;;;;;;13.82;6.43;;;;;;;10.46;47.38;100702.13;5074676;28;20357;-38
2022/02/12 07:25:37;;;;;;;10.20;5.53;;;;;;;10.93;46.51;100706.34;5075020;28;20019;-39
2022/02/12 07:28:03;;;;;;;15.23;6.38;;;;;;;11.66;44.96;100717.16;5074033;28;20021;-38
2022/02/12 07:30:29;;;;;;;28.20;15.32;;;;;;;11.72;45.01;100708.41;5075082;28;20047;-37
2022/02/12 07:32:55;;;;;;;14.75;5.88;;;;;;;11.65;43.91;100718.19;5074449;28;20046;-38
2022/02/12 07:35:20;;;;;;;9.50;5.57;;;;;;;11.78;43.09;100700.66;5074445;28;20411;-38
2022/02/12 07:37:47;;;;;;;16.38;5.72;;;;;;;12.37;42.23;100723.66;5074354;28;20028;-39
2022/02/12 07:40:14;;;;;;;10.95;5.63;;;;;;;12.62;41.43;100706.25;5074562;28;20016;-38
2022/02/12 07:42:39;;;;;;;8.80;5.47;;;;;;;12.45;42.01;100704.84;5072931;28;20040;-39
2022/02/12 07:45:05;;;;;;;11.90;5.95;;;;;;;12.68;42.34;100705.47;5074236;28;20498;-38
2022/02/12 07:47:31;;;;;;;13.02;5.65;;;;;;;12.90;42.02;100719.59;5074363;28;20024;-37
2022/02/12 07:49:56;;;;;;;17.52;5.38;;;;;;;12.61;41.78;100723.28;5073314;28;20016;-38
2022/02/12 07:52:22;;;;;;;10.18;5.30;;;;;;;12.55;42.37;100728.56;5073905;28;20029;-38
2022/02/12 07:54:47;;;;;;;11.07;5.32;;;;;;;12.46;42.08;100726.00;5073850;28;20024;-38
2022/02/12 07:57:13;;;;;;;14.23;5.93;;;;;;;13.16;41.50;100728.00;5073549;28;20468;-38
2022/02/12 07:59:39;;;;;;;12.70;5.70;;;;;;;13.25;41.19;100741.00;5072983;28;20024;-38
2022/02/12 08:02:04;;;;;;;10.18;5.85;;;;;;;13.16;41.64;100744.84;5073660;28;20028;-38
2022/02/12 08:04:29;;;;;;;9.38;5.60;;;;;;;13.23;41.68;100734.19;5073657;28;20033;-38
2022/02/12 08:09:39;;;;;;;20.02;9.73;;;;;;;14.43;39.77;100732.78;5074057;28;20070;-37
2022/02/12 08:12:14;;;;;;;13.30;6.38;;;;;;;13.62;40.92;100730.91;5073702;28;20020;-39
2022/02/12 08:14:43;;;;;;;10.35;5.93;;;;;;;13.76;40.94;100730.97;5071223;28;20031;-39
2022/02/12 08:17:09;;;;;;;9.68;6.38;;;;;;;14.13;40.23;100742.22;5072153;28;20024;-38
2022/02/12 08:19:35;;;;;;;14.23;6.72;;;;;;;13.35;41.88;100737.19;5073379;28;20467;-38
2022/02/12 08:22:01;;;;;;;13.07;6.45;;;;;;;13.25;42.19;100732.97;5073424;28;20098;-38
2022/02/12 08:24:26;;;;;;;11.48;6.63;;;;;;;13.94;41.38;100728.56;5072725;28;20109;-38
2022/02/12 08:26:52;;;;;;;12.40;6.60;;;;;;;14.16;40.66;100721.19;5073200;28;20024;-38
2022/02/12 08:29:17;;;;;;;11.30;6.95;;;;;;;14.05;41.52;100729.81;5073363;28;20028;-38
2022/02/12 08:31:43;;;;;;;13.10;7.28;;;;;;;14.07;41.17;100722.44;5074004;28;20404;-40
2022/02/12 08:34:08;;;;;;;16.80;7.93;;;;;;;14.74;40.24;100728.69;5073478;28;20025;-39
2022/02/12 08:36:33;;;;;;;14.45;6.90;;;;;;;15.03;39.31;100735.47;5073244;28;20074;-38
2022/02/12 08:38:59;;;;;;;16.30;7.22;;;;;;;14.52;40.96;100744.09;5073067;28;20051;-38
2022/02/12 08:41:24;;;;;;;14.18;6.72;;;;;;;14.10;40.84;100746.09;5073056;28;20021;-38
2022/02/12 08:43:50;;;;;;;12.70;7.43;;;;;;;14.84;40.25;100741.66;5073145;28;20028;-38
2022/02/12 08:46:15;;;;;;;17.17;7.55;;;;;;;14.85;40.07;100744.16;5072061;28;20032;-38
2022/02/12 08:48:41;;;;;;;14.25;7.55;;;;;;;14.43;40.46;100758.72;5073000;28;20024;-37
2022/02/12 08:51:08;;;;;;;13.77;7.93;;;;;;;14.42;41.30;100759.75;5072685;28;20476;-37
2022/02/12 08:53:33;;;;;;;14.45;7.15;;;;;;;14.63;41.03;100756.91;5072855;28;20024;-37
2022/02/12 08:56:00;;;;;;;13.32;7.75;;;;;;;14.70;40.59;100751.56;5072655;28;20511;-38
2022/02/12 08:58:26;;;;;;;13.80;8.05;;;;;;;14.61;40.87;100755.47;5072720;28;20032;-49
2022/02/12 09:00:52;;;;;;;16.35;8.80;;;;;;;14.91;40.72;100747.84;5072065;28;20361;-48
2022/02/12 09:03:17;;;;;;;17.77;9.93;;;;;;;15.60;39.23;100745.63;5071854;28;20027;-50
2022/02/12 09:05:43;;;;;;;13.38;9.05;;;;;;;15.56;38.98;100752.47;5071301;28;20044;-48
2022/02/12 09:08:08;;;;;;;15.20;8.60;;;;;;;15.23;40.01;100753.34;5071813;28;20142;-48
2022/02/12 09:10:34;;;;;;;16.50;8.73;;;;;;;14.77;40.85;100763.09;5071932;28;20021;-50
2022/02/12 09:12:59;;;;;;;14.82;8.52;;;;;;;15.47;40.56;100759.91;5071536;28;20457;-50
2022/02/12 09:15:25;;;;;;;13.80;8.27;;;;;;;15.43;40.46;100761.38;5071680;28;20529;-48
2022/02/12 09:17:50;;;;;;;21.52;12.35;;;;;;;15.08;41.05;100753.63;5071483;28;20058;-47
2022/02/12 09:20:15;;;;;;;14.05;9.45;;;;;;;15.02;40.50;100755.28;5071748;28;20020;-51
2022/02/12 09:22:41;;;;;;;15.07;9.23;;;;;;;15.69;39.58;100756.94;5071304;28;20035;-48
2022/02/12 09:25:08;;;;;;;14.18;8.95;;;;;;;15.69;39.49;100747.03;5071071;28;20456;-47
2022/02/12 09:27:34;;;;;;;16.20;9.02;;;;;;;14.78;41.41;100761.25;5070909;28;20091;-48
2022/02/12 09:29:59;;;;;;;16.60;9.60;;;;;;;14.83;42.01;100745.38;5071166;28;20454;-51
2022/02/12 09:32:26;;;;;;;15.63;9.93;;;;;;;15.83;39.64;100747.84;5071187;28;20024;-49
2022/02/12 09:34:53;;;;;;;18.70;9.95;;;;;;;15.35;40.88;100745.50;5070056;28;20130;-38
2022/02/12 09:37:18;;;;;;;15.73;9.93;;;;;;;14.99;41.23;100744.13;5069006;28;20668;-38
2022/02/12 09:39:43;;;;;;;15.02;10.18;;;;;;;15.29;41.36;100752.53;5070295;28;20021;-38
2022/02/12 09:42:10;;;;;;;14.35;10.02;;;;;;;16.14;38.95;100740.84;5069840;28;20028;-39
2022/02/12 09:44:38;;;;;;;15.73;9.48;;;;;;;16.27;52.82;100750.69;5070128;28;20020;-39
2022/02/12 09:47:25;;;;;;;19.38;10.57;;;;;;;15.73;41.84;100744.75;5069491;28;20021;-49
2022/02/12 09:49:55;;;;;;;22.52;9.32;;;;;;;16.40;45.10;100739.88;5068653;28;20024;-50
2022/02/12 09:52:21;;;;;;;16.92;9.43;;;;;;;16.57;40.56;100751.72;5069370;28;20579;-51
2022/02/12 09:54:46;;;;;;;17.10;9.95;;;;;;;15.96;46.33;100747.78;5068294;28;20052;-49
2022/02/12 09:57:12;;;;;;;17.92;9.23;;;;;;;16.62;43.45;100740.34;5069168;28;20476;-49
2022/02/12 09:59:38;;;;;;;17.35;9.52;;;;;;;16.44;39.02;100741.06;5069751;28;20036;-49
2022/02/12 10:02:03;;;;;;;19.60;9.85;;;;;;;15.59;39.45;100743.97;5064475;28;20028;-49
2022/02/12 10:04:31;;;;;;;15.90;9.98;;;;;;;15.07;40.55;100737.72;5067585;28;20021;-48
2022/02/12 10:06:57;;;;;;;14.15;10.00;;;;;;;14.54;42.02;100746.59;5069394;28;20063;-48
2022/02/12 10:09:22;;;;;;;14.77;9.77;;;;;;;15.04;41.08;100731.75;5069760;28;20515;-48
2022/02/12 10:11:49;;;;;;;15.88;9.02;;;;;;;15.11;40.11;100730.91;5069509;28;20017;-51
2022/02/12 10:14:19;;;;;;;16.35;9.40;;;;;;;14.96;40.66;100736.50;5069530;28;20030;-50
2022/02/12 10:16:55;;;;;;;14.75;8.95;;;;;;;14.72;41.47;100725.41;5066244;28;20028;-47
2022/02/12 10:19:50;;;;;;;17.05;9.73;;;;;;;15.32;40.57;100729.84;5066901;28;20028;-49
2022/02/12 10:22:16;;;;;;;14.65;8.80;;;;;;;14.75;41.11;100727.66;5063366;28;20032;-51
2022/02/12 10:24:54;;;;;;;13.48;8.70;;;;;;;14.35;41.97;100716.88;5069663;28;20028;-49
2022/02/12 10:27:21;;;;;;;13.35;8.93;;;;;;;15.48;40.57;100721.34;5070420;28;20067;-50
2022/02/12 10:29:47;;;;;;;15.45;9.25;;;;;;;15.56;39.74;100713.03;5070267;28;20116;-48
2022/02/12 10:32:20;;;;;;;14.18;8.80;;;;;;;15.35;40.61;100705.28;5070318;28;20025;-50
2022/02/12 10:34:46;;;;;;;15.05;9.27;;;;;;;15.28;40.00;100709.84;5070137;28;20117;-50
2022/02/12 10:37:15;;;;;;;14.35;8.65;;;;;;;15.84;39.53;100711.94;5069738;28;20016;-50
2022/02/12 10:40:00;;;;;;;13.75;9.18;;;;;;;15.76;39.66;100702.25;5069977;28;20039;-38
2022/02/12 10:42:30;;;;;;;15.00;9.18;;;;;;;15.41;39.92;100701.75;5070264;28;20028;-39
2022/02/12 10:44:55;;;;;;;18.98;9.75;;;;;;;15.69;39.93;100703.28;5067823;28;20025;-39
2022/02/12 10:47:21;;;;;;;13.13;9.05;;;;;;;16.11;38.25;100701.03;5067430;28;20399;-38
2022/02/12 10:49:47;;;;;;;13.98;9.25;;;;;;;15.36;39.61;100693.50;5068901;28;20052;-38
2022/02/12 10:52:12;;;;;;;12.15;8.52;;;;;;;15.37;39.36;100708.56;5069363;28;20021;-38
2022/02/12 10:54:42;;;;;;;13.43;8.70;;;;;;;15.64;39.07;100701.25;5069207;28;20029;-38
2022/02/12 10:57:08;;;;;;;;;;;;;;;15.75;37.96;100697.09;5069488;28;20013;-38
2022/02/12 10:59:36;;;;;;;15.15;8.35;;;;;;;14.95;39.74;100690.13;5068918;28;19913;-39
2022/02/12 11:02:05;;;;;;;13.82;8.40;;;;;;;15.15;39.43;100683.88;5051419;28;20046;-38
2022/02/12 11:04:31;;;;;;;15.75;8.82;;;;;;;15.74;38.30;100695.44;5067785;28;20474;-38
2022/02/12 11:06:56;;;;;;;14.65;8.70;;;;;;;15.32;38.22;100684.25;5065694;28;20044;-49
2022/02/12 11:09:23;;;;;;;10.90;7.57;;;;;;;15.28;38.86;100683.03;5058978;28;20053;-47
2022/02/12 11:11:49;;;;;;;12.02;7.60;;;;;;;15.03;39.48;100687.22;5067444;28;20033;-50
2022/02/12 11:14:18;;;;;;;19.67;7.93;;;;;;;15.55;37.92;100691.78;5066323;28;20043;-49
2022/02/12 11:16:43;;;;;;;13.95;8.10;;;;;;;15.57;37.85;100685.19;5064684;28;20025;-50
2022/02/12 11:19:09;;;;;;;12.73;7.78;;;;;;;15.54;38.30;100680.25;5068008;28;20093;-52
2022/02/12 11:21:37;;;;;;;13.27;7.85;;;;;;;15.70;38.44;100670.88;5068852;28;20025;-48